Rosebloom, Mississippi
Current Conditions -  °F | °C
As of 2:55 AM on Sunday 23 Nov 2014 (Local Time) from KGNF Reporting Station
Haze Haze  
Wind Chill: 57°   Ceiling: 1000
Heat Index: 57°   Visibility: 5mi
Dew Point: 54°   Wind: 7mph
Humidity: 88%   Direction: 100°E
Pressure: 29.85"   Gusts: NA
Location:  33.8947°N, 90.0323°W
Report Text: KGNF 230855Z AUTO 10006KT 5SM BR OVC010 14/12 A2985 RMK AO2
Loading
Personal Weather Stations






























Interactive Weather Map New forecast layout! Learn more

10-Day Weather Forecast

Advertisements
Track Severe Weather on mobile